Bordeaux-Mérignac Airport

LFBD · Gironde, Nouvelle-Aquitaine, 法国

罗盘
风向 的 风向 030° Bordeaux-Mérignac Airport 5/23
风: 3 kt, 1 beaufort

3 kt

1 kt
改变
0 ft 1.000 2.000 3.000 4.000 5.000
CAVOK
METAR LFBD 132200Z AUTO 03003KT CAVOK 18/13 Q1025 NOSIG

METAR Bordeaux-Mérignac Airport - LFBD/BOD

Bordeaux-Mérignac Airport是,法国中的大型机场。 该机场位于纬度44,82870和经度-0,71478。 该机场有2条跑道: 5/23 和 11/29. 本场的ICAO机场代码为LFBD。 该机场的IATA代码为BOD。 机场在Bordeaux FIR中。

该航空气象观测是针对Bordeaux-Mérignac Airport在2024年4月14日 00:00, 当地时间进行的。

机场观察

风向为030°,速度为3 kt。

天气为CAVOK。这意味着在5.000 ft或MSA(最低安全高度)以下(以较高者为准)以下没有云。这也意味着没有观测到积雨云或高耸的积云,可见度为10 km 或者更多或更高。此外,不会有雾,降雨或其他重要天气。

温度和风寒是18 °C。 露点为13 °C,相对湿度为73%。 海平面上的气压为1025 hPa (QNH)。

白天

今天,太阳从07:20升起,在20:45降落。 这适用于Bordeaux-Mérignac Airport,世界夏令时可能有所不同。 当地时间与世界标准时间之间的时差为+2 小时。 夏令时目前正在进行中。

公司介绍

在这个机场,你可以找到飞行俱乐部。 本场上唯一已知的公司是CAPAM。

体会

到Vliegles.nl去找飞行课程,跳伞和其他飞行体验。 浏览页面,了解Bordeaux-Mérignac Airport附近所有可用的活动。 你也可以使用搜索功能来寻找你所在地附近的特定飞行课程、跳伞或其他飞行体验。

跑道

Id 标题 侧风 逆风 侧风 %
5/23 045°-225° 3 kt 26 %
11/29 106°-286° 3 kt 97 %

逆风成分最大的方向会被突出显示,并用于横风计算。 这并不一定意味着这个方向在使用。

温度 & 天气

温度 18 °C
露点 13 °C
相对湿度 73%
Kp-index 1 (0-9)

白天

日出
07:20 (6:56)
中午
14:03
日落
20:45

小工具

你想在你的网站上有一个关于Bordeaux-Mérignac Airport的当前航空天气(METAR)的小部件吗?

显示HTML代码
报告变更